sensor_id;sensor_type;location;lat;lon;timestamp;P1;durP1;ratioP1;P2;durP2;ratioP2
46322;SDS011;32044;52.386;13.278;2023-02-28T00:01:08;20.85;;;11.10;;
46322;SDS011;32044;52.386;13.278;2023-02-28T00:03:35;20.33;;;11.90;;
46322;SDS011;32044;52.386;13.278;2023-02-28T00:06:03;19.92;;;10.85;;
46322;SDS011;32044;52.386;13.278;2023-02-28T00:08:31;15.98;;;10.38;;
46322;SDS011;32044;52.386;13.278;2023-02-28T00:11:00;17.35;;;10.68;;
46322;SDS011;32044;52.386;13.278;2023-02-28T00:13:28;19.05;;;10.90;;
46322;SDS011;32044;52.386;13.278;2023-02-28T00:15:59;15.50;;;10.38;;
46322;SDS011;32044;52.386;13.278;2023-02-28T00:18:28;17.10;;;9.95;;
46322;SDS011;32044;52.386;13.278;2023-02-28T00:20:56;14.38;;;9.43;;
46322;SDS011;32044;52.386;13.278;2023-02-28T00:23:24;14.25;;;9.18;;
46322;SDS011;32044;52.386;13.278;2023-02-28T00:25:52;16.67;;;8.45;;
46322;SDS011;32044;52.386;13.278;2023-02-28T00:28:20;14.45;;;8.07;;
46322;SDS011;32044;52.386;13.278;2023-02-28T00:30:47;13.55;;;7.57;;
46322;SDS011;32044;52.386;13.278;2023-02-28T00:33:15;10.38;;;6.97;;
46322;SDS011;32044;52.386;13.278;2023-02-28T00:35:44;11.80;;;7.28;;
46322;SDS011;32044;52.386;13.278;2023-02-28T00:38:13;11.27;;;6.50;;
46322;SDS011;32044;52.386;13.278;2023-02-28T00:40:40;11.52;;;7.32;;
46322;SDS011;32044;52.386;13.278;2023-02-28T00:43:08;13.23;;;7.47;;
46322;SDS011;32044;52.386;13.278;2023-02-28T00:45:36;11.07;;;7.18;;
46322;SDS011;32044;52.386;13.278;2023-02-28T00:48:03;14.52;;;7.32;;
46322;SDS011;32044;52.386;13.278;2023-02-28T00:50:31;13.70;;;7.90;;
46322;SDS011;32044;52.386;13.278;2023-02-28T00:53:00;14.32;;;7.28;;
46322;SDS011;32044;52.386;13.278;2023-02-28T00:55:28;13.65;;;8.32;;
46322;SDS011;32044;52.386;13.278;2023-02-28T00:57:55;14.77;;;7.78;;
46322;SDS011;32044;52.386;13.278;2023-02-28T01:00:23;13.18;;;7.38;;
46322;SDS011;32044;52.386;13.278;2023-02-28T01:02:50;15.27;;;8.45;;
46322;SDS011;32044;52.386;13.278;2023-02-28T01:05:18;17.80;;;8.48;;
46322;SDS011;32044;52.386;13.278;2023-02-28T01:07:45;11.43;;;7.47;;
46322;SDS011;32044;52.386;13.278;2023-02-28T01:10:14;17.70;;;8.77;;
46322;SDS011;32044;52.386;13.278;2023-02-28T01:12:42;15.00;;;8.82;;
46322;SDS011;32044;52.386;13.278;2023-02-28T01:15:10;12.68;;;7.55;;
46322;SDS011;32044;52.386;13.278;2023-02-28T01:17:37;10.10;;;6.43;;
46322;SDS011;32044;52.386;13.278;2023-02-28T01:20:05;9.40;;;6.15;;
46322;SDS011;32044;52.386;13.278;2023-02-28T01:22:34;9.85;;;6.15;;
46322;SDS011;32044;52.386;13.278;2023-02-28T01:25:01;10.93;;;6.00;;
46322;SDS011;32044;52.386;13.278;2023-02-28T01:27:31;10.18;;;5.90;;
46322;SDS011;32044;52.386;13.278;2023-02-28T01:29:58;11.02;;;6.60;;
46322;SDS011;32044;52.386;13.278;2023-02-28T01:32:26;10.52;;;6.55;;
46322;SDS011;32044;52.386;13.278;2023-02-28T01:34:53;10.65;;;6.72;;
46322;SDS011;32044;52.386;13.278;2023-02-28T01:37:21;14.23;;;7.70;;
46322;SDS011;32044;52.386;13.278;2023-02-28T01:39:49;11.48;;;8.20;;
46322;SDS011;32044;52.386;13.278;2023-02-28T01:42:16;12.10;;;7.13;;
46322;SDS011;32044;52.386;13.278;2023-02-28T01:44:57;9.07;;;6.53;;
46322;SDS011;32044;52.386;13.278;2023-02-28T01:47:28;12.73;;;6.93;;
46322;SDS011;32044;52.386;13.278;2023-02-28T01:49:57;12.65;;;6.80;;
46322;SDS011;32044;52.386;13.278;2023-02-28T01:52:26;9.13;;;5.82;;
46322;SDS011;32044;52.386;13.278;2023-02-28T01:54:55;12.55;;;6.95;;
46322;SDS011;32044;52.386;13.278;2023-02-28T01:57:24;10.02;;;5.85;;
46322;SDS011;32044;52.386;13.278;2023-02-28T01:59:57;6.45;;;4.65;;
46322;SDS011;32044;52.386;13.278;2023-02-28T02:02:25;9.63;;;5.93;;
46322;SDS011;32044;52.386;13.278;2023-02-28T02:04:54;10.55;;;6.18;;
46322;SDS011;32044;52.386;13.278;2023-02-28T02:07:23;8.10;;;5.30;;
46322;SDS011;32044;52.386;13.278;2023-02-28T02:09:58;9.18;;;6.00;;
46322;SDS011;32044;52.386;13.278;2023-02-28T02:12:27;11.18;;;6.47;;
46322;SDS011;32044;52.386;13.278;2023-02-28T02:15:06;8.48;;;6.07;;
46322;SDS011;32044;52.386;13.278;2023-02-28T02:17:38;10.02;;;5.85;;
46322;SDS011;32044;52.386;13.278;2023-02-28T02:20:22;12.18;;;5.53;;
46322;SDS011;32044;52.386;13.278;2023-02-28T02:25:55;7.70;;;5.72;;
46322;SDS011;32044;52.386;13.278;2023-02-28T02:28:35;9.15;;;5.28;;
46322;SDS011;32044;52.386;13.278;2023-02-28T02:31:18;9.25;;;6.03;;
46322;SDS011;32044;52.386;13.278;2023-02-28T02:36:52;9.18;;;5.97;;
46322;SDS011;32044;52.386;13.278;2023-02-28T02:39:29;11.18;;;6.72;;
46322;SDS011;32044;52.386;13.278;2023-02-28T02:41:59;9.35;;;5.75;;
46322;SDS011;32044;52.386;13.278;2023-02-28T02:44:30;10.98;;;6.57;;
46322;SDS011;32044;52.386;13.278;2023-02-28T02:47:01;10.88;;;6.32;;
46322;SDS011;32044;52.386;13.278;2023-02-28T02:49:32;8.48;;;5.63;;
46322;SDS011;32044;52.386;13.278;2023-02-28T02:52:02;10.25;;;6.28;;
46322;SDS011;32044;52.386;13.278;2023-02-28T02:54:31;9.38;;;6.30;;
46322;SDS011;32044;52.386;13.278;2023-02-28T02:57:01;10.23;;;6.80;;
46322;SDS011;32044;52.386;13.278;2023-02-28T02:59:30;10.57;;;6.72;;
46322;SDS011;32044;52.386;13.278;2023-02-28T03:02:00;9.45;;;6.28;;
46322;SDS011;32044;52.386;13.278;2023-02-28T03:04:30;8.65;;;6.30;;
46322;SDS011;32044;52.386;13.278;2023-02-28T03:07:00;10.65;;;6.32;;
46322;SDS011;32044;52.386;13.278;2023-02-28T03:09:28;11.93;;;6.47;;
46322;SDS011;32044;52.386;13.278;2023-02-28T03:11:55;9.65;;;6.60;;
46322;SDS011;32044;52.386;13.278;2023-02-28T03:14:30;11.38;;;6.72;;
46322;SDS011;32044;52.386;13.278;2023-02-28T03:17:07;10.05;;;6.47;;
46322;SDS011;32044;52.386;13.278;2023-02-28T03:19:47;11.48;;;6.65;;
46322;SDS011;32044;52.386;13.278;2023-02-28T03:22:24;10.82;;;6.47;;
46322;SDS011;32044;52.386;13.278;2023-02-28T03:24:59;13.93;;;7.78;;
46322;SDS011;32044;52.386;13.278;2023-02-28T03:27:34;14.38;;;7.53;;
46322;SDS011;32044;52.386;13.278;2023-02-28T03:30:09;12.48;;;7.63;;
46322;SDS011;32044;52.386;13.278;2023-02-28T03:32:38;11.57;;;6.78;;
46322;SDS011;32044;52.386;13.278;2023-02-28T03:37:39;9.77;;;6.63;;
46322;SDS011;32044;52.386;13.278;2023-02-28T03:40:10;14.27;;;7.75;;
46322;SDS011;32044;52.386;13.278;2023-02-28T03:42:39;13.02;;;7.20;;
46322;SDS011;32044;52.386;13.278;2023-02-28T03:45:11;14.05;;;7.18;;
46322;SDS011;32044;52.386;13.278;2023-02-28T03:47:41;9.57;;;7.28;;
46322;SDS011;32044;52.386;13.278;2023-02-28T03:50:16;11.05;;;7.05;;
46322;SDS011;32044;52.386;13.278;2023-02-28T03:52:47;10.85;;;7.05;;
46322;SDS011;32044;52.386;13.278;2023-02-28T03:55:16;11.38;;;7.30;;
46322;SDS011;32044;52.386;13.278;2023-02-28T03:57:47;15.05;;;7.30;;
46322;SDS011;32044;52.386;13.278;2023-02-28T04:00:21;13.02;;;7.05;;
46322;SDS011;32044;52.386;13.278;2023-02-28T04:02:54;14.25;;;7.60;;
46322;SDS011;32044;52.386;13.278;2023-02-28T04:05:23;14.82;;;7.82;;
46322;SDS011;32044;52.386;13.278;2023-02-28T04:07:51;11.68;;;7.47;;
46322;SDS011;32044;52.386;13.278;2023-02-28T04:10:18;12.15;;;7.38;;
46322;SDS011;32044;52.386;13.278;2023-02-28T04:12:46;11.00;;;7.43;;
46322;SDS011;32044;52.386;13.278;2023-02-28T04:15:14;13.73;;;7.75;;
46322;SDS011;32044;52.386;13.278;2023-02-28T04:17:41;11.50;;;7.35;;
46322;SDS011;32044;52.386;13.278;2023-02-28T04:20:10;13.32;;;6.68;;
46322;SDS011;32044;52.386;13.278;2023-02-28T04:22:39;13.93;;;7.30;;
46322;SDS011;32044;52.386;13.278;2023-02-28T04:25:07;12.05;;;7.78;;
46322;SDS011;32044;52.386;13.278;2023-02-28T04:27:35;13.25;;;7.20;;
46322;SDS011;32044;52.386;13.278;2023-02-28T04:30:03;11.98;;;7.55;;
46322;SDS011;32044;52.386;13.278;2023-02-28T04:32:31;12.50;;;7.70;;
46322;SDS011;32044;52.386;13.278;2023-02-28T04:34:58;13.45;;;7.78;;
46322;SDS011;32044;52.386;13.278;2023-02-28T04:37:26;12.60;;;8.10;;
46322;SDS011;32044;52.386;13.278;2023-02-28T04:39:56;20.17;;;8.77;;
46322;SDS011;32044;52.386;13.278;2023-02-28T04:42:23;14.93;;;8.43;;
46322;SDS011;32044;52.386;13.278;2023-02-28T04:44:51;13.90;;;8.60;;
46322;SDS011;32044;52.386;13.278;2023-02-28T04:47:18;11.52;;;7.28;;
46322;SDS011;32044;52.386;13.278;2023-02-28T04:49:46;11.10;;;7.40;;
46322;SDS011;32044;52.386;13.278;2023-02-28T04:52:13;9.85;;;6.57;;
46322;SDS011;32044;52.386;13.278;2023-02-28T04:54:41;13.95;;;8.55;;
46322;SDS011;32044;52.386;13.278;2023-02-28T04:57:10;13.07;;;8.20;;
46322;SDS011;32044;52.386;13.278;2023-02-28T04:59:37;12.63;;;8.02;;
46322;SDS011;32044;52.386;13.278;2023-02-28T05:02:05;9.95;;;7.50;;
46322;SDS011;32044;52.386;13.278;2023-02-28T05:04:33;15.82;;;8.55;;
46322;SDS011;32044;52.386;13.278;2023-02-28T05:07:02;12.52;;;7.80;;
46322;SDS011;32044;52.386;13.278;2023-02-28T05:09:30;13.00;;;8.35;;
46322;SDS011;32044;52.386;13.278;2023-02-28T05:11:59;12.40;;;7.80;;
46322;SDS011;32044;52.386;13.278;2023-02-28T05:14:27;12.90;;;7.72;;
46322;SDS011;32044;52.386;13.278;2023-02-28T05:16:55;11.30;;;7.65;;
46322;SDS011;32044;52.386;13.278;2023-02-28T05:19:22;12.50;;;7.85;;
46322;SDS011;32044;52.386;13.278;2023-02-28T05:21:50;16.42;;;8.40;;
46322;SDS011;32044;52.386;13.278;2023-02-28T05:24:19;14.25;;;8.00;;
46322;SDS011;32044;52.386;13.278;2023-02-28T05:26:49;16.92;;;8.40;;
46322;SDS011;32044;52.386;13.278;2023-02-28T05:29:19;12.10;;;8.15;;
46322;SDS011;32044;52.386;13.278;2023-02-28T05:31:47;13.75;;;8.38;;
46322;SDS011;32044;52.386;13.278;2023-02-28T05:34:15;12.27;;;8.10;;
46322;SDS011;32044;52.386;13.278;2023-02-28T05:36:43;13.25;;;7.68;;
46322;SDS011;32044;52.386;13.278;2023-02-28T05:39:10;11.80;;;7.75;;
46322;SDS011;32044;52.386;13.278;2023-02-28T05:41:40;13.10;;;8.20;;
46322;SDS011;32044;52.386;13.278;2023-02-28T05:44:07;15.77;;;8.63;;
46322;SDS011;32044;52.386;13.278;2023-02-28T05:46:35;14.10;;;8.07;;
46322;SDS011;32044;52.386;13.278;2023-02-28T05:49:04;14.02;;;8.63;;
46322;SDS011;32044;52.386;13.278;2023-02-28T05:51:32;13.15;;;8.52;;
46322;SDS011;32044;52.386;13.278;2023-02-28T05:54:00;12.52;;;8.30;;
46322;SDS011;32044;52.386;13.278;2023-02-28T05:56:28;11.77;;;8.07;;
46322;SDS011;32044;52.386;13.278;2023-02-28T05:58:56;12.68;;;7.63;;
46322;SDS011;32044;52.386;13.278;2023-02-28T06:01:24;13.05;;;7.82;;
46322;SDS011;32044;52.386;13.278;2023-02-28T06:03:58;15.70;;;8.32;;
46322;SDS011;32044;52.386;13.278;2023-02-28T06:06:27;13.60;;;8.43;;
46322;SDS011;32044;52.386;13.278;2023-02-28T06:08:55;14.02;;;9.63;;
46322;SDS011;32044;52.386;13.278;2023-02-28T06:11:23;13.93;;;8.05;;
46322;SDS011;32044;52.386;13.278;2023-02-28T06:13:54;7.53;;;5.70;;
46322;SDS011;32044;52.386;13.278;2023-02-28T06:16:22;14.18;;;8.60;;
46322;SDS011;32044;52.386;13.278;2023-02-28T06:18:50;14.13;;;8.60;;
46322;SDS011;32044;52.386;13.278;2023-02-28T06:21:18;16.70;;;8.85;;
46322;SDS011;32044;52.386;13.278;2023-02-28T06:23:47;11.57;;;7.65;;
46322;SDS011;32044;52.386;13.278;2023-02-28T06:26:15;15.13;;;8.45;;
46322;SDS011;32044;52.386;13.278;2023-02-28T06:28:42;11.80;;;7.68;;
46322;SDS011;32044;52.386;13.278;2023-02-28T06:31:11;13.60;;;8.38;;
46322;SDS011;32044;52.386;13.278;2023-02-28T06:33:40;10.18;;;7.45;;
46322;SDS011;32044;52.386;13.278;2023-02-28T06:36:08;9.38;;;6.13;;
46322;SDS011;32044;52.386;13.278;2023-02-28T06:38:36;8.35;;;5.82;;
46322;SDS011;32044;52.386;13.278;2023-02-28T06:41:06;10.43;;;5.65;;
46322;SDS011;32044;52.386;13.278;2023-02-28T06:43:34;10.70;;;5.63;;
46322;SDS011;32044;52.386;13.278;2023-02-28T06:46:05;10.43;;;6.15;;
46322;SDS011;32044;52.386;13.278;2023-02-28T06:48:34;12.45;;;5.93;;
46322;SDS011;32044;52.386;13.278;2023-02-28T06:51:03;8.85;;;6.25;;
46322;SDS011;32044;52.386;13.278;2023-02-28T06:53:32;11.05;;;5.70;;
46322;SDS011;32044;52.386;13.278;2023-02-28T06:56:03;9.95;;;5.47;;
46322;SDS011;32044;52.386;13.278;2023-02-28T07:01:00;11.35;;;6.68;;
46322;SDS011;32044;52.386;13.278;2023-02-28T07:03:28;6.97;;;5.57;;
46322;SDS011;32044;52.386;13.278;2023-02-28T07:05:59;9.27;;;4.80;;
46322;SDS011;32044;52.386;13.278;2023-02-28T07:08:27;12.35;;;6.82;;
46322;SDS011;32044;52.386;13.278;2023-02-28T07:10:55;9.13;;;6.50;;
46322;SDS011;32044;52.386;13.278;2023-02-28T07:13:23;10.43;;;7.03;;
46322;SDS011;32044;52.386;13.278;2023-02-28T07:15:55;11.25;;;6.93;;
46322;SDS011;32044;52.386;13.278;2023-02-28T07:18:24;11.82;;;7.40;;
46322;SDS011;32044;52.386;13.278;2023-02-28T07:20:52;12.18;;;7.05;;
46322;SDS011;32044;52.386;13.278;2023-02-28T07:23:19;10.65;;;7.57;;
46322;SDS011;32044;52.386;13.278;2023-02-28T07:25:47;11.35;;;7.85;;
46322;SDS011;32044;52.386;13.278;2023-02-28T07:28:16;12.63;;;7.90;;
46322;SDS011;32044;52.386;13.278;2023-02-28T07:30:43;11.95;;;8.15;;
46322;SDS011;32044;52.386;13.278;2023-02-28T07:33:12;11.38;;;8.25;;
46322;SDS011;32044;52.386;13.278;2023-02-28T07:35:40;13.93;;;8.60;;
46322;SDS011;32044;52.386;13.278;2023-02-28T07:38:08;15.32;;;9.82;;
46322;SDS011;32044;52.386;13.278;2023-02-28T07:40:35;19.60;;;10.15;;
46322;SDS011;32044;52.386;13.278;2023-02-28T07:43:03;18.73;;;10.05;;
46322;SDS011;32044;52.386;13.278;2023-02-28T07:45:31;14.70;;;8.85;;
46322;SDS011;32044;52.386;13.278;2023-02-28T07:48:00;13.10;;;8.63;;
46322;SDS011;32044;52.386;13.278;2023-02-28T07:50:30;15.35;;;9.40;;
46322;SDS011;32044;52.386;13.278;2023-02-28T07:52:57;13.77;;;8.50;;
46322;SDS011;32044;52.386;13.278;2023-02-28T07:55:25;12.60;;;8.05;;
46322;SDS011;32044;52.386;13.278;2023-02-28T07:57:53;13.10;;;7.95;;
46322;SDS011;32044;52.386;13.278;2023-02-28T08:00:21;13.90;;;7.75;;
46322;SDS011;32044;52.386;13.278;2023-02-28T08:02:49;10.30;;;6.95;;
46322;SDS011;32044;52.386;13.278;2023-02-28T08:05:17;10.10;;;6.80;;
46322;SDS011;32044;52.386;13.278;2023-02-28T08:07:54;12.75;;;7.30;;
46322;SDS011;32044;52.386;13.278;2023-02-28T08:10:22;11.25;;;6.90;;
46322;SDS011;32044;52.386;13.278;2023-02-28T08:12:50;10.30;;;6.32;;
46322;SDS011;32044;52.386;13.278;2023-02-28T08:15:18;9.27;;;6.22;;
46322;SDS011;32044;52.386;13.278;2023-02-28T08:17:45;10.65;;;5.70;;
46322;SDS011;32044;52.386;13.278;2023-02-28T08:20:13;6.47;;;4.22;;
46322;SDS011;32044;52.386;13.278;2023-02-28T08:22:40;8.90;;;4.82;;
46322;SDS011;32044;52.386;13.278;2023-02-28T08:25:12;7.53;;;4.40;;
46322;SDS011;32044;52.386;13.278;2023-02-28T08:27:40;8.07;;;4.82;;
46322;SDS011;32044;52.386;13.278;2023-02-28T08:30:08;7.65;;;4.32;;
46322;SDS011;32044;52.386;13.278;2023-02-28T08:32:37;9.18;;;4.20;;
46322;SDS011;32044;52.386;13.278;2023-02-28T08:35:05;10.07;;;4.22;;
46322;SDS011;32044;52.386;13.278;2023-02-28T08:37:33;9.85;;;4.43;;
46322;SDS011;32044;52.386;13.278;2023-02-28T08:40:00;10.30;;;4.93;;
46322;SDS011;32044;52.386;13.278;2023-02-28T08:42:29;6.95;;;4.15;;
46322;SDS011;32044;52.386;13.278;2023-02-28T08:44:57;7.03;;;4.05;;
46322;SDS011;32044;52.386;13.278;2023-02-28T08:47:24;6.78;;;3.70;;
46322;SDS011;32044;52.386;13.278;2023-02-28T08:49:52;10.23;;;4.60;;
46322;SDS011;32044;52.386;13.278;2023-02-28T08:52:20;8.05;;;4.30;;
46322;SDS011;32044;52.386;13.278;2023-02-28T08:54:47;7.05;;;4.38;;
46322;SDS011;32044;52.386;13.278;2023-02-28T08:57:15;13.13;;;4.80;;
46322;SDS011;32044;52.386;13.278;2023-02-28T08:59:44;6.72;;;4.28;;
46322;SDS011;32044;52.386;13.278;2023-02-28T09:02:12;8.07;;;3.92;;
46322;SDS011;32044;52.386;13.278;2023-02-28T09:04:40;7.35;;;3.92;;
46322;SDS011;32044;52.386;13.278;2023-02-28T09:07:07;8.77;;;3.70;;
46322;SDS011;32044;52.386;13.278;2023-02-28T09:09:35;8.93;;;3.55;;
46322;SDS011;32044;52.386;13.278;2023-02-28T09:12:02;7.13;;;3.40;;
46322;SDS011;32044;52.386;13.278;2023-02-28T09:14:31;6.15;;;4.22;;
46322;SDS011;32044;52.386;13.278;2023-02-28T09:17:00;7.55;;;3.35;;
46322;SDS011;32044;52.386;13.278;2023-02-28T09:19:27;8.07;;;3.30;;
46322;SDS011;32044;52.386;13.278;2023-02-28T09:21:54;6.47;;;3.50;;
46322;SDS011;32044;52.386;13.278;2023-02-28T09:24:23;10.10;;;4.32;;
46322;SDS011;32044;52.386;13.278;2023-02-28T09:26:50;6.47;;;3.78;;
46322;SDS011;32044;52.386;13.278;2023-02-28T09:29:29;5.50;;;2.78;;
46322;SDS011;32044;52.386;13.278;2023-02-28T09:31:57;7.35;;;2.92;;
46322;SDS011;32044;52.386;13.278;2023-02-28T09:34:26;4.20;;;2.78;;
46322;SDS011;32044;52.386;13.278;2023-02-28T09:36:54;5.40;;;3.40;;
46322;SDS011;32044;52.386;13.278;2023-02-28T09:39:22;5.82;;;2.90;;
46322;SDS011;32044;52.386;13.278;2023-02-28T09:41:51;6.00;;;2.60;;
46322;SDS011;32044;52.386;13.278;2023-02-28T09:44:20;3.83;;;2.53;;
46322;SDS011;32044;52.386;13.278;2023-02-28T09:46:54;6.35;;;2.65;;
46322;SDS011;32044;52.386;13.278;2023-02-28T09:49:28;5.10;;;2.33;;
46322;SDS011;32044;52.386;13.278;2023-02-28T09:52:00;5.25;;;3.20;;
46322;SDS011;32044;52.386;13.278;2023-02-28T09:54:30;4.28;;;2.10;;
46322;SDS011;32044;52.386;13.278;2023-02-28T09:56:59;3.28;;;2.40;;
46322;SDS011;32044;52.386;13.278;2023-02-28T09:59:31;7.22;;;2.72;;
46322;SDS011;32044;52.386;13.278;2023-02-28T10:02:10;5.63;;;2.20;;
46322;SDS011;32044;52.386;13.278;2023-02-28T10:04:49;2.60;;;2.00;;
46322;SDS011;32044;52.386;13.278;2023-02-28T10:07:30;4.70;;;2.00;;
46322;SDS011;32044;52.386;13.278;2023-02-28T10:10:06;5.00;;;2.38;;
46322;SDS011;32044;52.386;13.278;2023-02-28T10:12:44;4.22;;;1.85;;
46322;SDS011;32044;52.386;13.278;2023-02-28T10:15:13;5.15;;;2.28;;
46322;SDS011;32044;52.386;13.278;2023-02-28T10:17:42;2.53;;;1.90;;
46322;SDS011;32044;52.386;13.278;2023-02-28T10:20:32;5.05;;;2.25;;
46322;SDS011;32044;52.386;13.278;2023-02-28T10:23:03;3.33;;;2.17;;
46322;SDS011;32044;52.386;13.278;2023-02-28T10:25:34;5.43;;;2.00;;
46322;SDS011;32044;52.386;13.278;2023-02-28T10:28:07;4.15;;;2.45;;
46322;SDS011;32044;52.386;13.278;2023-02-28T10:30:37;4.03;;;2.08;;
46322;SDS011;32044;52.386;13.278;2023-02-28T10:33:10;4.93;;;2.08;;
46322;SDS011;32044;52.386;13.278;2023-02-28T10:35:46;3.97;;;2.33;;
46322;SDS011;32044;52.386;13.278;2023-02-28T10:41:04;6.63;;;2.35;;
46322;SDS011;32044;52.386;13.278;2023-02-28T10:43:33;7.28;;;2.78;;
46322;SDS011;32044;52.386;13.278;2023-02-28T10:46:02;4.50;;;2.40;;
46322;SDS011;32044;52.386;13.278;2023-02-28T10:48:32;2.78;;;2.17;;
46322;SDS011;32044;52.386;13.278;2023-02-28T10:51:02;6.82;;;2.78;;
46322;SDS011;32044;52.386;13.278;2023-02-28T10:53:32;4.40;;;2.53;;
46322;SDS011;32044;52.386;13.278;2023-02-28T10:56:22;4.05;;;2.70;;
46322;SDS011;32044;52.386;13.278;2023-02-28T10:58:52;3.75;;;2.20;;
46322;SDS011;32044;52.386;13.278;2023-02-28T11:01:22;2.83;;;2.08;;
46322;SDS011;32044;52.386;13.278;2023-02-28T11:03:51;4.43;;;2.50;;
46322;SDS011;32044;52.386;13.278;2023-02-28T11:06:21;4.10;;;2.72;;
46322;SDS011;32044;52.386;13.278;2023-02-28T11:08:51;4.35;;;2.78;;
46322;SDS011;32044;52.386;13.278;2023-02-28T11:11:20;5.07;;;2.38;;
46322;SDS011;32044;52.386;13.278;2023-02-28T11:13:50;4.78;;;2.33;;
46322;SDS011;32044;52.386;13.278;2023-02-28T11:16:19;3.30;;;2.05;;
46322;SDS011;32044;52.386;13.278;2023-02-28T11:18:48;5.65;;;2.70;;
46322;SDS011;32044;52.386;13.278;2023-02-28T11:21:23;6.20;;;2.70;;
46322;SDS011;32044;52.386;13.278;2023-02-28T11:23:54;4.72;;;2.35;;
46322;SDS011;32044;52.386;13.278;2023-02-28T11:26:41;4.40;;;2.80;;
46322;SDS011;32044;52.386;13.278;2023-02-28T11:29:11;3.55;;;2.38;;
46322;SDS011;32044;52.386;13.278;2023-02-28T11:31:59;4.53;;;2.50;;
46322;SDS011;32044;52.386;13.278;2023-02-28T11:34:29;5.22;;;2.90;;
46322;SDS011;32044;52.386;13.278;2023-02-28T11:36:59;3.90;;;2.38;;
46322;SDS011;32044;52.386;13.278;2023-02-28T11:39:31;4.88;;;2.88;;
46322;SDS011;32044;52.386;13.278;2023-02-28T11:42:15;4.90;;;2.75;;
46322;SDS011;32044;52.386;13.278;2023-02-28T11:44:55;3.75;;;2.50;;
46322;SDS011;32044;52.386;13.278;2023-02-28T11:47:32;5.75;;;2.47;;
46322;SDS011;32044;52.386;13.278;2023-02-28T11:50:11;4.35;;;2.60;;
46322;SDS011;32044;52.386;13.278;2023-02-28T11:52:48;4.43;;;2.63;;
46322;SDS011;32044;52.386;13.278;2023-02-28T11:55:20;4.88;;;2.92;;
46322;SDS011;32044;52.386;13.278;2023-02-28T11:58:01;4.30;;;2.72;;
46322;SDS011;32044;52.386;13.278;2023-02-28T12:00:40;6.72;;;3.10;;
46322;SDS011;32044;52.386;13.278;2023-02-28T12:03:20;4.30;;;2.78;;
46322;SDS011;32044;52.386;13.278;2023-02-28T12:05:57;6.18;;;2.95;;
46322;SDS011;32044;52.386;13.278;2023-02-28T12:08:43;7.80;;;2.88;;
46322;SDS011;32044;52.386;13.278;2023-02-28T12:11:17;7.18;;;2.45;;
46322;SDS011;32044;52.386;13.278;2023-02-28T12:13:52;4.75;;;2.83;;
46322;SDS011;32044;52.386;13.278;2023-02-28T12:16:37;5.28;;;2.70;;
46322;SDS011;32044;52.386;13.278;2023-02-28T12:19:14;6.00;;;2.97;;
46322;SDS011;32044;52.386;13.278;2023-02-28T12:21:48;4.43;;;2.55;;
46322;SDS011;32044;52.386;13.278;2023-02-28T12:24:30;5.45;;;2.55;;
46322;SDS011;32044;52.386;13.278;2023-02-28T12:27:07;6.63;;;3.50;;
46322;SDS011;32044;52.386;13.278;2023-02-28T12:29:39;6.30;;;3.13;;
46322;SDS011;32044;52.386;13.278;2023-02-28T12:32:12;7.85;;;3.30;;
46322;SDS011;32044;52.386;13.278;2023-02-28T12:34:44;4.75;;;2.90;;
46322;SDS011;32044;52.386;13.278;2023-02-28T12:37:15;5.30;;;2.53;;
46322;SDS011;32044;52.386;13.278;2023-02-28T12:39:46;4.22;;;2.75;;
46322;SDS011;32044;52.386;13.278;2023-02-28T12:42:19;6.95;;;3.40;;
46322;SDS011;32044;52.386;13.278;2023-02-28T12:44:52;5.22;;;3.20;;
46322;SDS011;32044;52.386;13.278;2023-02-28T12:47:21;9.73;;;3.38;;
46322;SDS011;32044;52.386;13.278;2023-02-28T12:49:49;8.15;;;3.25;;
46322;SDS011;32044;52.386;13.278;2023-02-28T12:52:22;5.93;;;3.30;;
46322;SDS011;32044;52.386;13.278;2023-02-28T12:54:54;6.38;;;3.08;;
46322;SDS011;32044;52.386;13.278;2023-02-28T12:57:27;7.80;;;3.53;;
46322;SDS011;32044;52.386;13.278;2023-02-28T13:00:01;5.93;;;3.95;;
46322;SDS011;32044;52.386;13.278;2023-02-28T13:02:33;9.32;;;3.33;;
46322;SDS011;32044;52.386;13.278;2023-02-28T13:08:04;7.80;;;3.25;;
46322;SDS011;32044;52.386;13.278;2023-02-28T13:10:41;5.35;;;3.10;;
46322;SDS011;32044;52.386;13.278;2023-02-28T13:13:14;6.00;;;3.67;;
46322;SDS011;32044;52.386;13.278;2023-02-28T13:18:27;8.68;;;3.97;;
46322;SDS011;32044;52.386;13.278;2023-02-28T13:20:57;5.40;;;3.03;;
46322;SDS011;32044;52.386;13.278;2023-02-28T13:23:39;4.88;;;3.13;;
46322;SDS011;32044;52.386;13.278;2023-02-28T13:29:50;8.98;;;3.85;;
46322;SDS011;32044;52.386;13.278;2023-02-28T13:32:30;6.38;;;3.20;;
46322;SDS011;32044;52.386;13.278;2023-02-28T13:38:24;7.70;;;3.40;;
46322;SDS011;32044;52.386;13.278;2023-02-28T13:44:07;7.25;;;3.83;;
46322;SDS011;32044;52.386;13.278;2023-02-28T13:46:36;4.60;;;3.30;;
46322;SDS011;32044;52.386;13.278;2023-02-28T13:49:17;6.82;;;3.35;;
46322;SDS011;32044;52.386;13.278;2023-02-28T13:51:46;5.82;;;3.67;;
46322;SDS011;32044;52.386;13.278;2023-02-28T13:54:17;6.78;;;3.50;;
46322;SDS011;32044;52.386;13.278;2023-02-28T13:56:51;9.27;;;3.83;;
46322;SDS011;32044;52.386;13.278;2023-02-28T13:59:28;7.88;;;3.35;;
46322;SDS011;32044;52.386;13.278;2023-02-28T14:02:01;6.35;;;3.08;;
46322;SDS011;32044;52.386;13.278;2023-02-28T14:04:51;7.15;;;3.70;;
46322;SDS011;32044;52.386;13.278;2023-02-28T14:07:26;4.68;;;3.10;;
46322;SDS011;32044;52.386;13.278;2023-02-28T14:10:01;7.00;;;3.38;;
46322;SDS011;32044;52.386;13.278;2023-02-28T14:15:27;5.10;;;3.13;;
46322;SDS011;32044;52.386;13.278;2023-02-28T14:17:59;6.63;;;3.80;;
46322;SDS011;32044;52.386;13.278;2023-02-28T14:20:29;6.53;;;3.50;;
46322;SDS011;32044;52.386;13.278;2023-02-28T14:23:02;8.10;;;3.70;;
46322;SDS011;32044;52.386;13.278;2023-02-28T14:25:32;10.63;;;4.35;;
46322;SDS011;32044;52.386;13.278;2023-02-28T14:28:04;7.18;;;3.40;;
46322;SDS011;32044;52.386;13.278;2023-02-28T14:30:48;5.35;;;3.45;;
46322;SDS011;32044;52.386;13.278;2023-02-28T14:33:22;5.35;;;3.60;;
46322;SDS011;32044;52.386;13.278;2023-02-28T14:36:00;5.60;;;3.10;;
46322;SDS011;32044;52.386;13.278;2023-02-28T14:38:30;11.23;;;3.85;;
46322;SDS011;32044;52.386;13.278;2023-02-28T14:41:00;7.30;;;3.58;;
46322;SDS011;32044;52.386;13.278;2023-02-28T14:43:30;6.20;;;3.75;;
46322;SDS011;32044;52.386;13.278;2023-02-28T14:46:00;6.68;;;3.88;;
46322;SDS011;32044;52.386;13.278;2023-02-28T14:48:28;7.32;;;3.13;;
46322;SDS011;32044;52.386;13.278;2023-02-28T14:50:56;5.53;;;3.05;;
46322;SDS011;32044;52.386;13.278;2023-02-28T14:53:25;5.63;;;3.63;;
46322;SDS011;32044;52.386;13.278;2023-02-28T14:55:55;6.95;;;3.65;;
46322;SDS011;32044;52.386;13.278;2023-02-28T14:58:25;8.80;;;3.70;;
46322;SDS011;32044;52.386;13.278;2023-02-28T15:00:54;5.88;;;3.20;;
46322;SDS011;32044;52.386;13.278;2023-02-28T15:03:24;7.88;;;4.05;;
46322;SDS011;32044;52.386;13.278;2023-02-28T15:05:58;10.68;;;3.88;;
46322;SDS011;32044;52.386;13.278;2023-02-28T15:08:27;8.15;;;3.47;;
46322;SDS011;32044;52.386;13.278;2023-02-28T15:10:56;5.60;;;3.58;;
46322;SDS011;32044;52.386;13.278;2023-02-28T15:13:26;7.78;;;3.78;;
46322;SDS011;32044;52.386;13.278;2023-02-28T15:15:59;6.10;;;4.07;;
46322;SDS011;32044;52.386;13.278;2023-02-28T15:18:33;8.30;;;3.90;;
46322;SDS011;32044;52.386;13.278;2023-02-28T15:21:08;9.05;;;3.45;;